Time;durP1;ratioP1;P1;durP2;ratioP2;P2;SDS_P1;SDS_P2;PMS_P1;PMS_P2;Temp;Humidity;BMP_temperature;BMP_pressure;BME280_temperature;BME280_humidity;BME280_pressure;Samples;Min_cycle;Max_cycle;Signal;HPM_P1;HPM_P2
2021/03/08 00:00:45;;;;;;;4.85;3.22;;;16.60;45.00;;;;;;5175138;27;20027;-82
2021/03/08 00:03:14;;;;;;;4.75;3.55;;;16.60;45.00;;;;;;5174551;27;20496;-84
2021/03/08 00:05:40;;;;;;;5.05;3.17;;;16.60;45.00;;;;;;5156259;27;20114;-84
2021/03/08 00:08:06;;;;;;;4.90;2.95;;;16.60;45.00;;;;;;5153841;27;20026;-83
2021/03/08 00:10:32;;;;;;;5.65;3.03;;;16.60;45.10;;;;;;5153726;27;20015;-83
2021/03/08 00:12:58;;;;;;;3.58;2.78;;;16.50;44.90;;;;;;5153089;27;20546;-84
2021/03/08 00:15:23;;;;;;;4.28;2.85;;;16.50;45.00;;;;;;5153513;27;20027;-83
2021/03/08 00:17:50;;;;;;;4.95;3.00;;;16.50;45.00;;;;;;5153696;27;20026;-81
2021/03/08 00:20:18;;;;;;;4.63;3.05;;;16.50;45.50;;;;;;5153578;27;20409;-84
2021/03/08 00:22:45;;;;;;;4.88;3.10;;;16.40;45.00;;;;;;5153509;27;20541;-84
2021/03/08 00:25:22;;;;;;;4.22;2.58;;;16.40;45.50;;;;;;5153306;27;20113;-84
2021/03/08 00:27:49;;;;;;;3.70;2.83;;;16.40;45.00;;;;;;5153829;27;20015;-85
2021/03/08 00:30:15;;;;;;;4.28;3.10;;;16.40;45.00;;;;;;5153948;27;20090;-85
2021/03/08 00:32:42;;;;;;;3.65;2.88;;;16.40;45.50;;;;;;5153547;27;20023;-85
2021/03/08 00:35:09;;;;;;;3.97;2.97;;;16.30;44.90;;;;;;5152946;27;20418;-85
2021/03/08 00:37:35;;;;;;;5.00;3.28;;;16.30;44.90;;;;;;5156775;27;20572;-83
2021/03/08 00:40:03;;;;;;;5.03;2.95;;;16.30;44.90;;;;;;5174113;27;20113;-83
2021/03/08 00:42:29;;;;;;;4.53;2.70;;;16.30;44.90;;;;;;5174548;27;20021;-83
2021/03/08 00:44:55;;;;;;;4.35;2.70;;;16.20;44.90;;;;;;5174119;27;20042;-83
2021/03/08 00:47:21;;;;;;;3.38;2.40;;;16.20;44.90;;;;;;5174016;27;20022;-76
2021/03/08 00:49:48;;;;;;;4.15;2.85;;;16.20;44.90;;;;;;5174508;27;20022;-84
2021/03/08 00:52:13;;;;;;;4.40;3.00;;;16.20;44.90;;;;;;5174160;27;20018;-84
2021/03/08 00:54:39;;;;;;;4.72;3.38;;;16.20;44.90;;;;;;5174140;27;20106;-86
2021/03/08 00:57:05;;;;;;;4.18;2.67;;;16.20;44.90;;;;;;5174163;27;20022;-84
2021/03/08 00:59:31;;;;;;;4.88;2.92;;;16.10;44.70;;;;;;5174065;27;20486;-84
2021/03/08 01:01:56;;;;;;;3.92;2.42;;;16.10;44.70;;;;;;5155382;27;20017;-82
2021/03/08 01:04:22;;;;;;;4.28;2.50;;;16.10;44.70;;;;;;5167330;27;20066;-84
2021/03/08 01:06:48;;;;;;;5.15;3.45;;;16.00;44.70;;;;;;5156897;27;20394;-83
2021/03/08 01:09:14;;;;;;;4.82;2.58;;;16.10;44.80;;;;;;5158733;27;20037;-84
2021/03/08 01:11:44;;;;;;;3.95;2.60;;;16.00;44.60;;;;;;5157153;27;20026;-85
2021/03/08 01:14:10;;;;;;;3.67;2.72;;;16.00;44.70;;;;;;5156968;27;20072;-85
2021/03/08 01:16:36;;;;;;;3.45;2.70;;;16.00;44.70;;;;;;5157002;27;20026;-84
2021/03/08 01:19:03;;;;;;;3.95;2.40;;;15.90;44.70;;;;;;5157084;27;20122;-85
2021/03/08 01:21:29;;;;;;;5.65;2.65;;;15.90;44.70;;;;;;5156748;27;20019;-84
2021/03/08 01:23:54;;;;;;;5.00;2.67;;;15.90;44.70;;;;;;5157115;27;20079;-84
2021/03/08 01:26:20;;;;;;;4.13;2.83;;;15.90;44.70;;;;;;5157411;27;20023;-85
2021/03/08 01:28:46;;;;;;;3.55;2.72;;;15.80;44.70;;;;;;5156929;27;20021;-86
2021/03/08 01:31:12;;;;;;;4.10;2.88;;;15.90;44.80;;;;;;5156855;27;20025;-85
2021/03/08 01:33:38;;;;;;;3.75;3.00;;;15.90;44.80;;;;;;5156882;27;20019;-85
2021/03/08 01:36:04;;;;;;;4.28;2.97;;;15.80;44.70;;;;;;5163374;27;20118;-84
2021/03/08 01:38:30;;;;;;;5.70;3.67;;;15.80;44.70;;;;;;5177542;27;20043;-85
2021/03/08 01:40:55;;;;;;;4.70;3.00;;;15.80;45.30;;;;;;5177693;27;20038;-84
2021/03/08 01:43:22;;;;;;;5.93;3.38;;;15.80;44.80;;;;;;5177682;27;20024;-82
2021/03/08 01:45:48;;;;;;;5.45;3.40;;;15.80;44.70;;;;;;5158735;27;20034;-85
2021/03/08 01:48:13;;;;;;;8.20;3.55;;;15.70;44.70;;;;;;5177222;27;20031;-86
2021/03/08 01:50:47;;;;;;;4.57;2.92;;;15.70;44.70;;;;;;5158611;27;20061;-85
2021/03/08 01:53:17;;;;;;;5.95;3.67;;;15.70;44.70;;;;;;5177005;27;20025;-83
2021/03/08 01:55:43;;;;;;;4.88;3.35;;;15.70;44.60;;;;;;5177166;27;20049;-83
2021/03/08 01:58:09;;;;;;;6.25;4.07;;;15.70;44.60;;;;;;5177023;27;20025;-83
2021/03/08 02:00:36;;;;;;;4.88;3.28;;;15.70;44.60;;;;;;5176900;27;20057;-83
2021/03/08 02:03:02;;;;;;;4.97;3.97;;;15.60;44.50;;;;;;5176661;27;20057;-82
2021/03/08 02:05:41;;;;;;;5.38;3.55;;;15.70;44.60;;;;;;5158110;27;20027;-82
2021/03/08 02:08:08;;;;;;;5.60;3.65;;;15.70;44.60;;;;;;5155967;27;20015;-85
2021/03/08 02:10:40;;;;;;;5.43;4.03;;;15.70;44.60;;;;;;5157134;27;20395;-86
2021/03/08 02:13:23;;;;;;;5.82;4.32;;;15.70;44.50;;;;;;5155941;27;20498;-86
2021/03/08 02:16:21;;;;;;;4.65;3.75;;;15.60;44.50;;;;;;5156033;27;20058;-85
2021/03/08 02:19:22;;;;;;;5.53;3.63;;;15.70;44.50;;;;;;5132426;27;20484;-86
2021/03/08 02:22:13;;;;;;;4.78;3.85;;;15.60;44.40;;;;;;5134541;27;20043;-84
2021/03/08 02:25:18;;;;;;;5.00;3.60;;;15.60;44.40;;;;;;5134893;27;20019;-84
2021/03/08 02:28:13;;;;;;;4.50;3.33;;;15.60;44.50;;;;;;5103522;27;20058;-84
2021/03/08 02:30:48;;;;;;;4.75;3.42;;;15.60;44.50;;;;;;5146418;27;20023;-84
2021/03/08 02:33:22;;;;;;;5.20;3.70;;;15.50;44.50;;;;;;5155425;27;20110;-85
2021/03/08 02:35:52;;;;;;;4.95;3.92;;;15.50;44.50;;;;;;5134628;27;20367;-85
2021/03/08 02:38:20;;;;;;;5.20;3.40;;;15.50;44.50;;;;;;5138857;27;20463;-84
2021/03/08 02:40:55;;;;;;;4.40;3.72;;;15.50;44.50;;;;;;5154902;27;20027;-83
2021/03/08 02:43:29;;;;;;;5.17;3.93;;;15.50;44.50;;;;;;5155582;27;20010;-84
2021/03/08 02:45:57;;;;;;;6.35;4.53;;;15.50;44.50;;;;;;5155314;27;20035;-83
2021/03/08 02:48:25;;;;;;;5.88;3.97;;;15.50;44.50;;;;;;5155331;27;20033;-83
2021/03/08 02:50:53;;;;;;;4.82;3.60;;;15.40;44.60;;;;;;5155400;27;20029;-84
2021/03/08 02:53:20;;;;;;;3.38;3.03;;;15.50;44.60;;;;;;5155078;27;20050;-85
2021/03/08 02:55:57;;;;;;;5.13;3.47;;;15.40;44.50;;;;;;5155131;27;20069;-84
2021/03/08 02:58:25;;;;;;;5.35;3.53;;;15.40;44.50;;;;;;5155398;27;20044;-84
2021/03/08 03:00:52;;;;;;;4.47;3.55;;;15.40;44.50;;;;;;5154037;27;20482;-80
2021/03/08 03:03:20;;;;;;;4.75;3.75;;;15.40;44.60;;;;;;5154550;27;20397;-84
2021/03/08 03:05:47;;;;;;;4.63;3.67;;;15.40;44.50;;;;;;5154619;27;20485;-79
2021/03/08 03:08:15;;;;;;;5.20;4.00;;;15.40;44.60;;;;;;5154873;27;20034;-80
2021/03/08 03:10:41;;;;;;;4.63;3.60;;;15.40;44.50;;;;;;5135805;27;20549;-85
2021/03/08 03:13:09;;;;;;;6.10;3.90;;;15.40;44.50;;;;;;5154856;27;20027;-75
2021/03/08 03:15:37;;;;;;;5.00;4.13;;;15.40;44.40;;;;;;5154792;27;20023;-75
2021/03/08 03:18:06;;;;;;;4.93;3.60;;;15.40;45.10;;;;;;5154760;27;20027;-74
2021/03/08 03:20:36;;;;;;;4.53;3.75;;;15.40;44.50;;;;;;5154593;27;20106;-85
2021/03/08 03:23:05;;;;;;;7.25;3.85;;;15.30;44.50;;;;;;5154428;27;20393;-83
2021/03/08 03:25:31;;;;;;;4.30;3.20;;;15.30;44.60;;;;;;5135964;27;20393;-75
2021/03/08 03:27:58;;;;;;;5.75;3.60;;;15.30;44.60;;;;;;5154433;27;20027;-85
2021/03/08 03:30:28;;;;;;;5.18;3.97;;;15.20;44.50;;;;;;5153911;27;20023;-83
2021/03/08 03:32:54;;;;;;;7.28;3.58;;;15.30;44.60;;;;;;5168123;27;20133;-85
2021/03/08 03:35:24;;;;;;;4.72;3.72;;;15.20;44.60;;;;;;5175363;27;20456;-83
2021/03/08 03:37:50;;;;;;;4.57;3.38;;;15.20;44.60;;;;;;5175483;27;20086;-85
2021/03/08 03:40:17;;;;;;;5.70;3.88;;;15.20;44.60;;;;;;5175118;27;20026;-86
2021/03/08 03:42:45;;;;;;;5.25;3.90;;;15.20;44.60;;;;;;5175168;27;20541;-82
2021/03/08 03:45:11;;;;;;;6.07;4.03;;;15.20;44.60;;;;;;5174966;27;20030;-85
2021/03/08 03:50:11;;;;;;;7.07;4.68;;;15.20;44.60;;;;;;5050604;28;20061;-77
2021/03/08 03:52:37;;;;;;;4.65;3.30;;;15.10;44.60;;;;;;5052620;28;20468;-86
2021/03/08 03:55:06;;;;;;;4.88;3.53;;;15.10;44.60;;;;;;5051212;28;20033;-86
2021/03/08 03:58:09;;;;;;;4.68;3.88;;;15.10;44.60;;;;;;5051870;28;20075;-86
2021/03/08 04:00:57;;;;;;;5.03;4.10;;;15.10;44.70;;;;;;5030077;28;20047;-82
2021/03/08 04:03:46;;;;;;;5.43;3.53;;;15.10;44.70;;;;;;5051935;28;20487;-83
2021/03/08 04:06:13;;;;;;;5.03;3.95;;;15.10;44.70;;;;;;5034084;28;20025;-84
2021/03/08 04:08:44;;;;;;;5.75;4.40;;;15.10;44.60;;;;;;5052435;28;20021;-84
2021/03/08 04:11:12;;;;;;;4.88;4.10;;;15.10;44.60;;;;;;5052064;28;20025;-79
2021/03/08 04:13:38;;;;;;;5.38;4.32;;;15.10;44.60;;;;;;5051981;28;20021;-82
2021/03/08 04:16:07;;;;;;;5.20;4.25;;;15.10;44.60;;;;;;5033962;28;20082;-85
2021/03/08 04:18:34;;;;;;;6.18;4.30;;;15.10;44.50;;;;;;5051746;28;20074;-83
2021/03/08 04:21:01;;;;;;;7.15;4.55;;;15.10;44.60;;;;;;5051706;28;20396;-86
2021/03/08 04:23:29;;;;;;;6.43;4.93;;;15.10;44.50;;;;;;5051432;28;20027;-86
2021/03/08 04:25:55;;;;;;;6.32;4.65;;;15.10;44.50;;;;;;5051750;28;20028;-85
2021/03/08 04:28:22;;;;;;;6.07;4.55;;;15.10;44.50;;;;;;5051447;28;20025;-84
2021/03/08 04:30:48;;;;;;;6.72;4.97;;;15.00;44.50;;;;;;5051039;28;20043;-83
2021/03/08 04:33:16;;;;;;;6.10;4.35;;;15.00;44.50;;;;;;5051790;28;20029;-86
2021/03/08 04:35:44;;;;;;;6.57;4.82;;;15.00;44.50;;;;;;5051462;28;20029;-84
2021/03/08 04:38:10;;;;;;;5.40;4.50;;;15.00;44.60;;;;;;5051444;28;20488;-85
2021/03/08 04:40:37;;;;;;;6.18;4.50;;;15.00;44.60;;;;;;5052984;28;20037;-86
2021/03/08 04:43:04;;;;;;;6.38;5.00;;;15.00;44.50;;;;;;5055457;28;20045;-86
2021/03/08 04:45:30;;;;;;;5.50;4.65;;;15.00;44.50;;;;;;5055704;28;20048;-86
2021/03/08 04:47:59;;;;;;;7.03;5.03;;;15.00;44.60;;;;;;5055043;28;20044;-85
2021/03/08 04:50:26;;;;;;;6.65;5.68;;;15.00;45.10;;;;;;5055107;28;20116;-85
2021/03/08 04:52:52;;;;;;;7.00;5.70;;;14.90;44.50;;;;;;5055007;28;20396;-84
2021/03/08 04:55:21;;;;;;;7.35;5.50;;;14.90;44.50;;;;;;5037299;28;20025;-83
2021/03/08 04:57:46;;;;;;;9.90;5.45;;;14.90;44.50;;;;;;5055346;28;20029;-83
2021/03/08 05:00:13;;;;;;;8.30;5.68;;;14.90;44.50;;;;;;5055554;28;20037;-85
2021/03/08 05:02:41;;;;;;;7.90;5.68;;;15.00;44.50;;;;;;5055814;28;20013;-84
2021/03/08 05:05:09;;;;;;;7.85;5.90;;;15.00;44.50;;;;;;5055192;28;20029;-84
2021/03/08 05:07:40;;;;;;;7.68;5.75;;;15.00;44.50;;;;;;5054970;28;20086;-84
2021/03/08 05:10:09;;;;;;;8.07;6.28;;;14.90;44.40;;;;;;5054875;28;20033;-85
2021/03/08 05:12:37;;;;;;;10.23;6.63;;;14.90;44.40;;;;;;5055395;28;20610;-88
2021/03/08 05:15:06;;;;;;;8.23;6.05;;;14.90;44.50;;;;;;5055128;28;20078;-76
2021/03/08 05:17:33;;;;;;;8.77;6.03;;;14.90;44.40;;;;;;5054631;28;20028;-81
2021/03/08 05:20:00;;;;;;;9.48;6.43;;;14.90;44.50;;;;;;5036843;28;20040;-79
2021/03/08 05:22:26;;;;;;;6.53;5.65;;;14.80;44.50;;;;;;5055025;28;20021;-75
2021/03/08 05:24:52;;;;;;;8.93;6.57;;;14.80;44.50;;;;;;5054803;28;20104;-75
2021/03/08 05:27:18;;;;;;;8.68;6.78;;;14.80;44.50;;;;;;5036737;28;20079;-75
2021/03/08 05:29:46;;;;;;;7.65;5.88;;;14.80;44.50;;;;;;5054411;28;20065;-77
2021/03/08 05:32:23;;;;;;;8.82;6.65;;;14.80;44.50;;;;;;5055222;28;20029;-86
2021/03/08 05:34:51;;;;;;;7.78;5.95;;;14.80;44.60;;;;;;5038072;28;20369;-85
2021/03/08 05:37:18;;;;;;;7.57;5.80;;;14.70;44.50;;;;;;5053573;28;20522;-83
2021/03/08 05:39:45;;;;;;;7.65;6.15;;;14.70;44.50;;;;;;5054943;28;20040;-85
2021/03/08 05:42:13;;;;;;;8.93;6.53;;;14.70;44.50;;;;;;5054829;28;20095;-77
2021/03/08 05:44:53;;;;;;;8.38;6.25;;;14.70;44.50;;;;;;5054702;28;20026;-76
2021/03/08 05:47:37;;;;;;;9.00;6.72;;;14.70;44.50;;;;;;5054385;28;20387;-81
2021/03/08 05:50:27;;;;;;;8.35;6.45;;;14.70;44.50;;;;;;5054155;28;20116;-82
2021/03/08 05:53:11;;;;;;;9.82;6.40;;;14.70;44.50;;;;;;5036100;28;20492;-85
2021/03/08 05:55:52;;;;;;;8.43;6.28;;;14.70;44.50;;;;;;5054309;28;20025;-82
2021/03/08 05:58:26;;;;;;;10.10;6.35;;;14.70;44.50;;;;;;5054653;28;20021;-86
2021/03/08 06:01:39;;;;;;;9.68;6.93;;;14.70;44.50;;;;;;5053201;28;20041;-85
2021/03/08 06:04:22;;;;;;;8.88;6.32;;;14.70;44.50;;;;;;5007328;28;20049;-85
2021/03/08 06:07:22;;;;;;;8.68;6.95;;;14.70;44.50;;;;;;5053727;28;20028;-85
2021/03/08 06:10:07;;;;;;;8.25;6.72;;;14.60;44.40;;;;;;5041858;28;20064;-84
2021/03/08 06:12:36;;;;;;;8.70;6.67;;;14.70;44.40;;;;;;5036057;28;20017;-86
2021/03/08 06:15:15;;;;;;;9.68;6.43;;;14.60;44.30;;;;;;5053169;28;20029;-85
2021/03/08 06:17:43;;;;;;;9.75;7.13;;;14.70;44.40;;;;;;5054168;28;20028;-86
2021/03/08 06:20:09;;;;;;;11.25;7.32;;;14.60;44.30;;;;;;5052441;28;20033;-85
2021/03/08 06:22:36;;;;;;;9.75;7.53;;;14.60;44.30;;;;;;5053250;28;20078;-86
2021/03/08 06:25:03;;;;;;;8.13;6.45;;;14.60;44.30;;;;;;5053156;28;20594;-86
2021/03/08 06:27:30;;;;;;;9.32;7.35;;;14.60;44.30;;;;;;5053491;28;20017;-80
2021/03/08 06:29:56;;;;;;;10.52;6.75;;;14.60;44.40;;;;;;5051479;28;20519;-77
2021/03/08 06:32:23;;;;;;;10.15;7.10;;;14.60;44.50;;;;;;5053884;28;20024;-83
2021/03/08 06:34:50;;;;;;;9.77;7.47;;;14.50;44.50;;;;;;5052851;28;20082;-85
2021/03/08 06:37:15;;;;;;;10.38;7.20;;;14.50;44.50;;;;;;5053452;28;20104;-84
2021/03/08 06:39:43;;;;;;;8.25;6.80;;;14.50;44.50;;;;;;5052918;28;20472;-84
2021/03/08 06:42:11;;;;;;;9.23;6.30;;;14.60;44.50;;;;;;5053525;28;20021;-81
2021/03/08 06:44:37;;;;;;;12.82;6.88;;;14.70;44.40;;;;;;5052873;28;20032;-75
2021/03/08 06:47:07;;;;;;;9.15;6.05;;;14.80;44.40;;;;;;5051029;28;20033;-75
2021/03/08 06:49:33;;;;;;;9.07;5.95;;;15.00;45.00;;;;;;5052386;28;20029;-77
2021/03/08 06:52:09;;;;;;;8.05;5.82;;;15.10;44.70;;;;;;5053032;28;20025;-77
2021/03/08 06:54:37;;;;;;;11.15;6.93;;;15.40;44.70;;;;;;5052613;28;20079;-78
2021/03/08 06:57:26;;;;;;;6.35;5.35;;;15.60;44.60;;;;;;5052427;28;20033;-75
2021/03/08 06:59:59;;;;;;;6.53;4.78;;;15.70;44.50;;;;;;5043315;28;20523;-77
2021/03/08 07:02:37;;;;;;;11.50;5.97;;;15.90;44.60;;;;;;5051984;28;20095;-77
2021/03/08 07:05:03;;;;;;;10.18;5.60;;;16.00;45.10;;;;;;5052358;28;20031;-78
2021/03/08 07:07:29;;;;;;;8.68;5.65;;;16.20;45.30;;;;;;5052076;28;20075;-77
2021/03/08 07:09:54;;;;;;;9.55;5.47;;;16.40;45.30;;;;;;5051833;28;20028;-74
2021/03/08 07:12:21;;;;;;;8.40;5.10;;;16.60;45.80;;;;;;5051930;28;20039;-77
2021/03/08 07:15:03;;;;;;;7.63;5.40;;;16.70;45.70;;;;;;5052231;28;20024;-77
2021/03/08 07:17:32;;;;;;;7.78;5.50;;;16.90;46.30;;;;;;5052757;28;20074;-77
2021/03/08 07:20:10;;;;;;;9.52;5.55;;;17.00;45.80;;;;;;5052052;28;20087;-75
2021/03/08 07:22:53;;;;;;;9.23;5.93;;;17.20;45.40;;;;;;5034004;28;20057;-79
2021/03/08 07:25:20;;;;;;;12.98;5.65;;;17.40;45.20;;;;;;5052455;28;20036;-78
2021/03/08 07:27:47;;;;;;;10.48;6.97;;;17.40;45.40;;;;;;5051838;28;20067;-76
2021/03/08 07:30:14;;;;;;;8.65;6.55;;;17.40;45.50;;;;;;5051754;28;20099;-74
2021/03/08 07:32:50;;;;;;;8.90;5.32;;;17.40;45.30;;;;;;5052274;28;20368;-76
2021/03/08 07:35:16;;;;;;;9.15;5.88;;;17.40;45.20;;;;;;5052896;28;20039;-76
2021/03/08 07:37:44;;;;;;;8.27;5.15;;;17.50;44.90;;;;;;5051696;28;20096;-76
2021/03/08 07:40:19;;;;;;;9.90;5.78;;;17.60;44.50;;;;;;5051296;28;20045;-75
2021/03/08 07:42:45;;;;;;;8.73;6.15;;;17.60;44.30;;;;;;5051266;28;20095;-75
2021/03/08 07:45:11;;;;;;;7.65;6.30;;;17.70;44.30;;;;;;5034386;28;20462;-74
2021/03/08 07:47:37;;;;;;;8.60;5.80;;;17.70;44.10;;;;;;5052325;28;20013;-74
2021/03/08 07:50:23;;;;;;;8.85;5.60;;;17.70;44.60;;;;;;5051856;28;20056;-75
2021/03/08 07:52:49;;;;;;;9.23;6.78;;;17.80;44.00;;;;;;5051934;28;20052;-75
2021/03/08 07:55:15;;;;;;;12.35;5.93;;;17.80;43.80;;;;;;5052448;28;20024;-75
2021/03/08 07:57:41;;;;;;;13.43;5.70;;;18.00;43.70;;;;;;5052498;28;20060;-77
2021/03/08 08:00:11;;;;;;;9.77;6.90;;;18.00;43.60;;;;;;5051843;28;20056;-75
2021/03/08 08:02:36;;;;;;;9.75;6.30;;;18.20;43.70;;;;;;5051326;28;20060;-75
2021/03/08 08:05:03;;;;;;;9.75;6.82;;;18.20;43.20;;;;;;5051152;28;20057;-75
2021/03/08 08:07:31;;;;;;;9.65;6.57;;;18.20;43.10;;;;;;5050434;28;20511;-75
2021/03/08 08:10:04;;;;;;;9.00;6.40;;;18.30;43.00;;;;;;5050405;28;20025;-75
2021/03/08 08:12:33;;;;;;;9.80;6.80;;;18.40;43.10;;;;;;5051957;28;20025;-75
2021/03/08 08:15:01;;;;;;;11.30;6.18;;;18.50;42.90;;;;;;5051386;28;20112;-73
2021/03/08 08:17:29;;;;;;;10.32;6.13;;;18.50;42.60;;;;;;5051780;28;20052;-75
2021/03/08 08:19:55;;;;;;;11.00;6.22;;;18.60;42.50;;;;;;5051434;28;20041;-74
2021/03/08 08:22:23;;;;;;;12.73;6.38;;;18.60;42.40;;;;;;5051932;28;20032;-75
2021/03/08 08:24:52;;;;;;;7.70;6.60;;;18.70;42.40;;;;;;5051835;28;20029;-75
2021/03/08 08:27:19;;;;;;;11.13;6.93;;;18.70;42.30;;;;;;5050425;28;20602;-74
2021/03/08 08:29:46;;;;;;;8.35;6.18;;;18.70;42.50;;;;;;5051371;28;20036;-75
2021/03/08 08:32:13;;;;;;;9.75;7.00;;;18.70;42.90;;;;;;5051036;28;20021;-75
2021/03/08 08:34:39;;;;;;;7.45;6.13;;;18.70;42.40;;;;;;5051781;28;20106;-75
2021/03/08 08:37:11;;;;;;;8.05;6.00;;;18.60;42.40;;;;;;5051242;28;20029;-75
2021/03/08 08:39:39;;;;;;;11.30;6.25;;;18.60;42.40;;;;;;5051340;28;20087;-74
2021/03/08 08:42:19;;;;;;;9.10;6.95;;;18.60;42.30;;;;;;5051316;28;20024;-75
2021/03/08 08:44:50;;;;;;;10.02;6.63;;;18.60;42.30;;;;;;5050473;28;20045;-74
2021/03/08 08:47:20;;;;;;;7.60;5.95;;;18.50;42.30;;;;;;5051559;28;20036;-75
2021/03/08 08:49:54;;;;;;;9.02;6.43;;;18.50;42.50;;;;;;5051354;28;20043;-74
2021/03/08 08:52:48;;;;;;;8.43;6.25;;;18.40;42.50;;;;;;5051298;28;20032;-74
2021/03/08 08:55:14;;;;;;;8.43;7.10;;;18.40;42.70;;;;;;5051451;28;20031;-74
2021/03/08 08:58:18;;;;;;;8.52;6.68;;;18.30;42.70;;;;;;5051456;28;20053;-75
2021/03/08 09:01:14;;;;;;;9.13;7.28;;;18.30;42.60;;;;;;5050994;28;20536;-75
2021/03/08 09:03:53;;;;;;;10.18;7.10;;;18.30;42.80;;;;;;5050949;28;20024;-75
2021/03/08 09:06:37;;;;;;;9.30;7.18;;;18.20;42.90;;;;;;5051315;28;20032;-74
2021/03/08 09:09:03;;;;;;;11.70;7.25;;;18.10;42.90;;;;;;5040758;28;20029;-75
2021/03/08 09:11:47;;;;;;;9.48;7.25;;;18.10;42.80;;;;;;5050233;28;20021;-76
2021/03/08 09:14:40;;;;;;;8.63;6.93;;;18.10;42.80;;;;;;5051296;28;20029;-74
2021/03/08 09:17:11;;;;;;;8.55;6.65;;;18.10;42.80;;;;;;5032244;28;20036;-76
2021/03/08 09:19:37;;;;;;;8.55;6.93;;;18.00;42.70;;;;;;5050862;28;20025;-76
2021/03/08 09:22:21;;;;;;;9.90;6.93;;;18.00;42.70;;;;;;5050927;28;20029;-76
2021/03/08 09:24:57;;;;;;;7.72;6.15;;;18.00;42.50;;;;;;5051201;28;20035;-76
2021/03/08 09:27:31;;;;;;;8.35;6.80;;;17.90;42.40;;;;;;5035596;28;20032;-76
2021/03/08 09:30:15;;;;;;;10.77;7.10;;;17.90;42.40;;;;;;5054652;28;20027;-76
2021/03/08 09:33:08;;;;;;;9.35;6.53;;;17.90;42.30;;;;;;5054813;28;20108;-76
2021/03/08 09:35:55;;;;;;;9.85;7.47;;;17.80;42.20;;;;;;5052247;28;20447;-76
2021/03/08 09:38:24;;;;;;;8.57;7.05;;;17.80;42.30;;;;;;5054068;28;20029;-76
2021/03/08 09:40:57;;;;;;;12.65;7.45;;;17.70;42.20;;;;;;5054034;28;20115;-76
2021/03/08 09:43:34;;;;;;;9.00;7.28;;;17.70;42.30;;;;;;5054065;28;20033;-75
2021/03/08 09:46:18;;;;;;;10.23;7.28;;;17.70;42.30;;;;;;5053312;28;20009;-75
2021/03/08 09:48:52;;;;;;;10.15;7.30;;;17.60;42.40;;;;;;5053704;28;20059;-75
2021/03/08 09:51:19;;;;;;;8.52;7.38;;;17.60;42.30;;;;;;5053331;28;20094;-75
2021/03/08 09:53:52;;;;;;;11.70;7.43;;;17.60;42.30;;;;;;5054468;28;20032;-76
2021/03/08 09:56:19;;;;;;;11.68;6.75;;;17.60;42.20;;;;;;5054451;28;20070;-74
2021/03/08 09:58:45;;;;;;;9.50;7.20;;;17.60;42.30;;;;;;5054515;28;20029;-75
2021/03/08 10:01:16;;;;;;;9.88;7.78;;;17.50;42.30;;;;;;5054077;28;20035;-75
2021/03/08 10:03:43;;;;;;;11.25;7.28;;;17.50;42.20;;;;;;5053099;28;20025;-76
2021/03/08 10:06:30;;;;;;;9.20;6.45;;;17.50;42.20;;;;;;5053538;28;20553;-76
2021/03/08 10:08:56;;;;;;;8.98;6.60;;;17.40;42.20;;;;;;5054552;28;20025;-76
2021/03/08 10:11:25;;;;;;;7.90;6.70;;;17.40;42.20;;;;;;5054005;28;20075;-76
2021/03/08 10:13:52;;;;;;;8.13;6.38;;;17.40;42.20;;;;;;5054013;28;20112;-76
2021/03/08 10:16:27;;;;;;;9.25;6.13;;;17.40;42.20;;;;;;5053467;28;20380;-76
2021/03/08 10:18:53;;;;;;;8.57;6.55;;;17.40;42.20;;;;;;5053462;28;20115;-75
2021/03/08 10:21:20;;;;;;;9.10;6.43;;;17.40;42.30;;;;;;5036178;28;20400;-76
2021/03/08 10:23:46;;;;;;;7.70;6.50;;;17.40;42.20;;;;;;5052877;28;20107;-75
2021/03/08 10:26:18;;;;;;;9.00;6.57;;;17.30;42.20;;;;;;5053588;28;20025;-76
2021/03/08 10:28:51;;;;;;;7.78;6.53;;;17.30;42.20;;;;;;5053487;28;20025;-76
2021/03/08 10:31:24;;;;;;;8.57;6.32;;;17.30;42.20;;;;;;5035590;28;20083;-74
2021/03/08 10:34:05;;;;;;;7.50;5.97;;;17.30;42.20;;;;;;5053746;28;20025;-78
2021/03/08 10:36:35;;;;;;;6.85;5.82;;;17.30;42.20;;;;;;5053647;28;20021;-75
2021/03/08 10:39:08;;;;;;;7.63;5.68;;;17.40;42.30;;;;;;5034040;28;20032;-75
2021/03/08 10:41:36;;;;;;;8.05;6.35;;;17.30;42.20;;;;;;5033523;28;20025;-76
2021/03/08 10:44:03;;;;;;;9.75;6.50;;;17.30;42.20;;;;;;5033493;28;20033;-76
2021/03/08 10:46:33;;;;;;;9.35;6.05;;;17.30;42.30;;;;;;5019953;28;20068;-75
2021/03/08 10:49:04;;;;;;;9.55;6.40;;;17.30;42.30;;;;;;5053635;28;20037;-75
2021/03/08 10:51:34;;;;;;;8.30;6.07;;;17.40;42.40;;;;;;5053383;28;20366;-75
2021/03/08 10:54:05;;;;;;;7.93;5.55;;;17.50;42.50;;;;;;5053586;28;20060;-76
2021/03/08 10:56:33;;;;;;;8.40;6.63;;;17.50;42.50;;;;;;5053510;28;20032;-76
2021/03/08 10:58:59;;;;;;;8.90;6.57;;;17.60;42.50;;;;;;5052333;28;20064;-76
2021/03/08 11:01:29;;;;;;;10.07;6.35;;;17.70;42.40;;;;;;5053210;28;20108;-74
2021/03/08 11:03:55;;;;;;;9.63;6.20;;;17.80;42.40;;;;;;5053216;28;20024;-75
2021/03/08 11:06:22;;;;;;;9.05;5.75;;;17.90;42.30;;;;;;5052656;28;20086;-76
2021/03/08 11:09:05;;;;;;;8.93;5.95;;;18.00;42.20;;;;;;5053007;28;20032;-76
2021/03/08 11:11:33;;;;;;;7.72;5.88;;;18.10;42.10;;;;;;5052666;28;20036;-74
2021/03/08 11:14:04;;;;;;;7.22;5.82;;;18.10;42.00;;;;;;5052446;28;20024;-74
2021/03/08 11:16:30;;;;;;;8.55;4.80;;;18.20;41.80;;;;;;5053346;28;20029;-74
2021/03/08 11:19:16;;;;;;;8.18;5.68;;;18.40;41.80;;;;;;5051955;28;20055;-76
2021/03/08 11:21:42;;;;;;;7.68;5.53;;;18.50;41.60;;;;;;5052492;28;20045;-75
2021/03/08 11:24:16;;;;;;;6.60;5.10;;;18.60;41.40;;;;;;5052852;28;20029;-74
2021/03/08 11:26:42;;;;;;;6.45;4.97;;;18.70;41.30;;;;;;5052730;28;20094;-76
2021/03/08 11:29:24;;;;;;;8.27;5.90;;;18.80;41.10;;;;;;5052657;28;20021;-77
2021/03/08 11:31:54;;;;;;;6.00;5.40;;;18.90;41.00;;;;;;5052502;28;20029;-73
2021/03/08 11:34:42;;;;;;;7.10;5.75;;;19.00;40.90;;;;;;5034099;28;20060;-77
2021/03/08 11:37:14;;;;;;;9.00;6.70;;;19.00;40.80;;;;;;5051438;28;20021;-75
2021/03/08 11:39:44;;;;;;;7.88;5.85;;;19.10;40.80;;;;;;5051071;28;20041;-76
2021/03/08 11:42:11;;;;;;;7.93;5.68;;;19.10;40.70;;;;;;5052232;28;20044;-75
2021/03/08 11:44:37;;;;;;;7.50;5.68;;;19.30;40.60;;;;;;5051853;28;20518;-75
2021/03/08 11:47:04;;;;;;;8.32;5.88;;;19.30;40.50;;;;;;5052621;28;20021;-73
2021/03/08 11:49:29;;;;;;;8.48;5.57;;;19.40;40.50;;;;;;5033408;28;20028;-75
2021/03/08 11:51:55;;;;;;;6.60;4.63;;;19.60;40.50;;;;;;5051938;28;20052;-76
2021/03/08 11:54:21;;;;;;;6.75;5.15;;;19.80;40.20;;;;;;5052035;28;20040;-75
2021/03/08 11:56:47;;;;;;;8.27;5.22;;;20.00;40.10;;;;;;5051740;28;20029;-76
2021/03/08 11:59:13;;;;;;;6.10;4.60;;;20.20;40.10;;;;;;5051275;28;20547;-74
2021/03/08 12:01:38;;;;;;;7.40;4.90;;;20.30;40.00;;;;;;5051712;28;20484;-75
2021/03/08 12:04:04;;;;;;;8.40;5.18;;;20.40;40.00;;;;;;5051879;28;20025;-75
2021/03/08 12:06:30;;;;;;;8.32;5.78;;;20.50;39.80;;;;;;5051787;28;20059;-76
2021/03/08 12:08:55;;;;;;;7.55;5.65;;;20.70;40.40;;;;;;5051682;28;20143;-74
2021/03/08 12:11:21;;;;;;;6.65;4.70;;;20.90;39.50;;;;;;5051821;28;20025;-74
2021/03/08 12:13:47;;;;;;;6.20;5.15;;;21.00;39.30;;;;;;5051802;28;20068;-76
2021/03/08 12:16:12;;;;;;;8.35;4.53;;;21.20;39.30;;;;;;5051765;28;20032;-77
2021/03/08 12:18:38;;;;;;;5.93;4.60;;;21.50;39.30;;;;;;5051354;28;20036;-77
2021/03/08 12:21:04;;;;;;;7.40;4.53;;;22.40;38.90;;;;;;5051071;28;20218;-76
2021/03/08 12:23:29;;;;;;;6.45;5.30;;;23.90;37.60;;;;;;5050833;28;20029;-77
2021/03/08 12:25:55;;;;;;;7.30;5.00;;;25.20;36.10;;;;;;5031734;28;20030;-76
2021/03/08 12:28:21;;;;;;;7.30;4.68;;;26.40;34.50;;;;;;5045507;28;20057;-77
2021/03/08 12:30:46;;;;;;;12.25;4.47;;;27.50;33.50;;;;;;5050106;28;20115;-77
2021/03/08 12:33:12;;;;;;;5.82;4.40;;;28.20;32.50;;;;;;5050257;28;20028;-76
2021/03/08 12:35:38;;;;;;;6.32;4.20;;;28.90;32.10;;;;;;5050196;28;20484;-77
2021/03/08 12:38:03;;;;;;;10.02;4.93;;;29.50;31.30;;;;;;5051118;28;20032;-76
2021/03/08 12:40:29;;;;;;;5.65;4.63;;;30.10;30.70;;;;;;5050162;28;20135;-76
2021/03/08 12:42:55;;;;;;;5.70;4.70;;;30.20;31.00;;;;;;5050301;28;20022;-76
2021/03/08 12:45:20;;;;;;;10.10;4.85;;;30.30;30.60;;;;;;5050212;28;20096;-77
2021/03/08 12:47:46;;;;;;;6.50;4.47;;;30.20;30.50;;;;;;5050014;28;20510;-77
2021/03/08 12:50:12;;;;;;;5.32;4.18;;;30.60;30.00;;;;;;5050001;28;20036;-77
2021/03/08 12:52:38;;;;;;;5.15;4.55;;;30.80;29.60;;;;;;5050960;28;20112;-78
2021/03/08 12:55:04;;;;;;;7.70;4.75;;;30.40;29.30;;;;;;5051284;28;20100;-77
2021/03/08 12:57:30;;;;;;;8.52;4.10;;;28.40;31.00;;;;;;5051256;28;20091;-74
2021/03/08 12:59:56;;;;;;;6.25;4.35;;;26.60;34.20;;;;;;5050120;28;20033;-79
2021/03/08 13:02:22;;;;;;;5.95;4.15;;;25.50;35.90;;;;;;5053449;28;20029;-80
2021/03/08 13:04:47;;;;;;;7.25;4.60;;;24.60;37.70;;;;;;5053181;28;20044;-79